createdAt,value
2018-07-05T00:02:29.971Z,95.90
2018-07-05T00:05:09.536Z,96.40
2018-07-05T00:07:49.420Z,96.40
2018-07-05T00:10:28.916Z,96.30
2018-07-05T00:13:08.548Z,95.70
2018-07-05T00:15:47.937Z,95.70
2018-07-05T00:18:27.512Z,95.80
2018-07-05T00:21:07.063Z,95.90
2018-07-05T00:23:46.588Z,96.20
2018-07-05T00:26:26.047Z,96.00
2018-07-05T00:29:05.660Z,95.90
2018-07-05T00:31:45.144Z,95.90
2018-07-05T00:34:24.736Z,96.00
2018-07-05T00:37:04.207Z,95.90
2018-07-05T00:39:44.512Z,95.90
2018-07-05T00:42:23.976Z,95.70
2018-07-05T00:45:03.822Z,94.80
2018-07-05T00:47:43.243Z,95.20
2018-07-05T00:50:22.844Z,95.10
2018-07-05T00:53:02.351Z,95.00
2018-07-05T00:55:41.992Z,94.60
2018-07-05T00:58:21.470Z,94.10
2018-07-05T01:01:00.951Z,93.70
2018-07-05T01:03:40.520Z,93.70
2018-07-05T01:06:20.086Z,93.50
2018-07-05T01:08:59.607Z,93.20
2018-07-05T01:11:39.183Z,93.20
2018-07-05T01:14:18.845Z,93.50
2018-07-05T01:16:58.249Z,93.70
2018-07-05T01:19:37.795Z,93.80
2018-07-05T01:22:17.414Z,94.00
2018-07-05T01:24:58.455Z,93.90
2018-07-05T01:27:38.247Z,94.10
2018-07-05T01:30:19.008Z,94.20
2018-07-05T01:32:58.580Z,93.90
2018-07-05T01:35:38.353Z,93.50
2018-07-05T01:38:17.723Z,93.10
2018-07-05T01:40:57.365Z,93.00
2018-07-05T01:43:36.920Z,93.00
2018-07-05T01:46:16.448Z,93.00
2018-07-05T01:48:55.989Z,92.90
2018-07-05T01:51:35.609Z,92.60
2018-07-05T01:54:15.212Z,92.60
2018-07-05T01:56:54.804Z,92.80
2018-07-05T01:59:34.284Z,92.90
2018-07-05T02:02:13.710Z,93.20
2018-07-05T02:04:53.279Z,93.60
2018-07-05T02:07:32.768Z,93.90
2018-07-05T02:10:12.351Z,94.20
2018-07-05T02:12:51.831Z,93.90
2018-07-05T02:15:31.284Z,94.00
2018-07-05T02:18:10.859Z,94.60
2018-07-05T02:20:50.460Z,94.50
2018-07-05T02:23:29.900Z,94.80
2018-07-05T02:26:09.464Z,94.90
2018-07-05T02:28:49.047Z,94.90
2018-07-05T02:31:29.248Z,94.60
2018-07-05T02:34:10.069Z,94.20
2018-07-05T02:36:49.624Z,93.90
2018-07-05T02:39:34.420Z,93.80
2018-07-05T02:42:14.359Z,93.90
2018-07-05T02:44:54.894Z,93.80
2018-07-05T02:47:34.468Z,93.60
2018-07-05T02:50:14.085Z,93.60
2018-07-05T02:52:53.653Z,93.60
2018-07-05T02:55:33.932Z,93.80
2018-07-05T02:58:13.591Z,93.80
2018-07-05T03:00:53.217Z,93.70
2018-07-05T03:03:32.852Z,93.70
2018-07-05T03:06:12.404Z,93.40
2018-07-05T03:08:51.856Z,93.60
2018-07-05T03:11:31.472Z,93.60
2018-07-05T03:14:11.064Z,93.90
2018-07-05T03:16:50.572Z,94.10
2018-07-05T03:19:30.787Z,94.30
2018-07-05T03:22:10.108Z,94.30
2018-07-05T03:24:49.576Z,94.30
2018-07-05T03:27:29.443Z,94.30
2018-07-05T03:30:08.921Z,94.30
2018-07-05T03:32:48.387Z,94.20
2018-07-05T03:35:27.975Z,94.30
2018-07-05T03:38:08.479Z,94.30
2018-07-05T03:40:48.112Z,94.40
2018-07-05T03:43:27.671Z,94.70
2018-07-05T03:46:07.100Z,94.90
2018-07-05T03:48:46.731Z,95.10
2018-07-05T03:51:26.258Z,95.30
2018-07-05T03:54:05.809Z,95.00
2018-07-05T03:56:45.343Z,94.60
2018-07-05T03:59:24.799Z,94.20
2018-07-05T04:02:05.135Z,94.30
2018-07-05T04:04:44.761Z,94.30
2018-07-05T04:07:24.348Z,94.10
2018-07-05T04:10:04.191Z,94.20
2018-07-05T04:12:43.620Z,94.50
2018-07-05T04:15:23.947Z,95.00
2018-07-05T04:18:04.140Z,95.40
2018-07-05T04:20:43.490Z,95.60
2018-07-05T04:23:23.073Z,95.60
2018-07-05T04:26:02.592Z,95.40
2018-07-05T04:28:42.239Z,95.00
2018-07-05T04:31:21.644Z,94.60
2018-07-05T04:34:01.254Z,94.40
2018-07-05T04:36:40.716Z,94.30
2018-07-05T04:39:20.372Z,94.30
2018-07-05T04:42:00.011Z,94.50
2018-07-05T04:44:40.593Z,95.20
2018-07-05T04:47:20.040Z,95.60
2018-07-05T04:49:59.492Z,95.40
2018-07-05T04:52:39.091Z,95.20
2018-07-05T04:55:18.545Z,94.70
2018-07-05T04:57:58.108Z,94.30
2018-07-05T05:00:37.587Z,94.10
2018-07-05T05:03:17.176Z,94.00
2018-07-05T05:05:56.774Z,94.40
2018-07-05T05:08:36.450Z,93.80
2018-07-05T05:11:16.233Z,93.30
2018-07-05T05:13:55.860Z,93.00
2018-07-05T05:16:35.504Z,92.80
2018-07-05T05:19:15.049Z,92.80
2018-07-05T05:21:54.531Z,93.10
2018-07-05T05:24:34.079Z,92.30
2018-07-05T05:27:13.570Z,92.60
2018-07-05T05:29:52.992Z,92.70
2018-07-05T05:32:32.637Z,92.70
2018-07-05T05:35:12.204Z,92.50
2018-07-05T05:37:51.795Z,93.00
2018-07-05T05:40:31.165Z,92.60
2018-07-05T05:43:10.740Z,92.80
2018-07-05T05:45:50.197Z,92.70
2018-07-05T05:48:29.753Z,92.10
2018-07-05T05:51:09.341Z,91.80
2018-07-05T05:53:48.684Z,92.20
2018-07-05T05:56:28.268Z,91.60
2018-07-05T05:59:07.882Z,92.30
2018-07-05T06:01:47.548Z,91.80
2018-07-05T06:04:27.140Z,90.60
2018-07-05T06:07:06.695Z,90.20
2018-07-05T06:09:46.204Z,90.40
2018-07-05T06:12:25.777Z,90.30
2018-07-05T06:15:05.236Z,90.30
2018-07-05T06:17:45.384Z,88.50
2018-07-05T06:20:24.867Z,89.20
2018-07-05T06:23:04.364Z,89.00
2018-07-05T06:25:43.951Z,89.60
2018-07-05T06:28:23.508Z,87.10
2018-07-05T06:31:02.960Z,86.80
2018-07-05T06:33:43.212Z,86.30
2018-07-05T06:36:22.660Z,86.80
2018-07-05T06:39:02.267Z,86.70
2018-07-05T06:41:41.956Z,86.10
2018-07-05T06:44:21.500Z,86.10
2018-07-05T06:47:00.882Z,86.70
2018-07-05T06:49:40.444Z,86.20
2018-07-05T06:52:20.024Z,86.30
2018-07-05T06:54:59.552Z,83.90
2018-07-05T06:57:39.152Z,83.80
2018-07-05T07:00:18.672Z,84.20
2018-07-05T07:02:58.256Z,86.20
2018-07-05T07:05:37.695Z,85.50
2018-07-05T07:08:17.287Z,82.60
2018-07-05T07:10:56.936Z,83.20
2018-07-05T07:13:36.460Z,83.40
2018-07-05T07:16:15.943Z,83.30
2018-07-05T07:18:55.424Z,83.30
2018-07-05T07:21:34.912Z,83.70
2018-07-05T07:24:14.483Z,83.70
2018-07-05T07:26:53.985Z,84.40
2018-07-05T07:29:33.496Z,83.50
2018-07-05T07:32:13.091Z,83.90
2018-07-05T07:34:52.661Z,82.40
2018-07-05T07:37:32.292Z,83.80
2018-07-05T07:40:11.844Z,83.90
2018-07-05T07:42:39.076Z,83.10
2018-07-05T07:45:06.352Z,83.70
2018-07-05T07:47:33.604Z,82.60
2018-07-05T07:50:01.776Z,82.70
2018-07-05T07:52:29.007Z,81.70
2018-07-05T07:54:56.312Z,81.90
2018-07-05T07:57:23.556Z,81.30
2018-07-05T07:59:50.802Z,80.30
2018-07-05T08:02:18.059Z,81.30
2018-07-05T08:04:45.300Z,83.00
2018-07-05T08:07:12.564Z,81.50
2018-07-05T08:09:39.796Z,82.00
2018-07-05T08:12:07.067Z,80.80
2018-07-05T08:14:34.289Z,81.10
2018-07-05T08:17:01.546Z,79.80
2018-07-05T08:19:28.767Z,80.30
2018-07-05T08:21:56.007Z,79.50
2018-07-05T08:24:23.248Z,79.70
2018-07-05T08:26:50.497Z,77.80
2018-07-05T08:29:17.739Z,78.80
2018-07-05T08:31:44.985Z,78.40
2018-07-05T08:34:12.236Z,76.80
2018-07-05T08:36:39.468Z,76.10
2018-07-05T08:39:06.856Z,76.40
2018-07-05T08:41:34.104Z,75.90
2018-07-05T08:44:01.357Z,75.80
2018-07-05T08:46:28.628Z,75.50
2018-07-05T08:48:55.864Z,75.30
2018-07-05T08:51:23.100Z,75.10
2018-07-05T08:53:50.344Z,75.50
2018-07-05T08:56:17.588Z,74.50
2018-07-05T08:58:44.825Z,73.90
2018-07-05T09:01:12.068Z,74.40
2018-07-05T09:03:39.311Z,74.70
2018-07-05T09:06:06.540Z,74.20
2018-07-05T09:08:33.819Z,73.90
2018-07-05T09:11:01.052Z,75.40
2018-07-05T09:13:28.311Z,74.50
2018-07-05T09:15:55.548Z,74.80
2018-07-05T09:18:22.874Z,75.20
2018-07-05T09:20:50.089Z,74.60
2018-07-05T09:23:19.060Z,73.90
2018-07-05T09:25:46.225Z,74.00
2018-07-05T09:28:13.473Z,74.10
2018-07-05T09:30:40.723Z,75.20
2018-07-05T09:33:07.967Z,75.00
2018-07-05T09:35:35.239Z,74.70
2018-07-05T09:38:02.484Z,74.90
2018-07-05T09:40:32.284Z,75.50
2018-07-05T09:42:59.533Z,75.00
2018-07-05T09:45:26.772Z,73.20
2018-07-05T09:47:54.012Z,72.90
2018-07-05T09:50:21.253Z,72.80
2018-07-05T09:52:48.507Z,73.90
2018-07-05T09:55:15.729Z,74.10
2018-07-05T09:57:42.972Z,72.60
2018-07-05T10:00:11.708Z,71.90
2018-07-05T10:02:39.708Z,71.30
2018-07-05T10:05:06.959Z,72.80
2018-07-05T10:07:34.368Z,73.10
2018-07-05T10:10:01.948Z,69.20
2018-07-05T10:12:29.209Z,67.80
2018-07-05T10:14:56.463Z,71.40
2018-07-05T10:17:24.228Z,71.10
2018-07-05T10:19:51.472Z,70.60
2018-07-05T10:22:18.714Z,69.30
2018-07-05T10:24:45.969Z,64.20
2018-07-05T10:27:13.230Z,66.30
2018-07-05T10:29:52.701Z,66.30
2018-07-05T10:32:32.295Z,68.10
2018-07-05T10:34:59.540Z,64.30
2018-07-05T10:37:26.768Z,65.30
2018-07-05T10:40:06.281Z,66.90
2018-07-05T10:42:45.764Z,65.00
2018-07-05T10:45:25.323Z,66.00
2018-07-05T10:48:04.840Z,68.10
2018-07-05T10:50:44.436Z,63.60
2018-07-05T10:53:23.896Z,63.10
2018-07-05T10:56:03.488Z,61.70
2018-07-05T10:58:43.051Z,62.00
2018-07-05T11:01:22.596Z,65.50
2018-07-05T11:04:02.190Z,67.90
2018-07-05T11:06:42.481Z,62.60
2018-07-05T11:09:21.978Z,65.00
2018-07-05T11:12:02.344Z,63.60
2018-07-05T11:14:42.105Z,61.90
2018-07-05T11:17:21.608Z,61.60
2018-07-05T11:20:01.064Z,61.90
2018-07-05T11:22:40.560Z,60.70
2018-07-05T11:25:20.041Z,63.30
2018-07-05T11:27:59.616Z,57.80
2018-07-05T11:30:39.172Z,58.50
2018-07-05T11:33:18.668Z,60.80
2018-07-05T11:35:58.184Z,58.10
2018-07-05T11:38:37.756Z,56.90
2018-07-05T11:41:17.264Z,55.60
2018-07-05T11:43:56.839Z,55.60
2018-07-05T11:46:36.408Z,55.90
2018-07-05T11:49:15.913Z,52.90
2018-07-05T11:51:55.288Z,52.90
2018-07-05T11:54:34.860Z,54.20
2018-07-05T11:57:14.451Z,52.60
2018-07-05T11:59:54.787Z,55.80
2018-07-05T12:02:34.246Z,52.90
2018-07-05T12:05:13.809Z,54.80
2018-07-05T12:07:53.376Z,56.70
2018-07-05T12:10:34.768Z,55.50
2018-07-05T12:13:14.363Z,56.60
2018-07-05T12:15:53.987Z,57.10
2018-07-05T12:18:33.440Z,55.40
2018-07-05T12:21:13.056Z,55.80
2018-07-05T12:23:52.955Z,56.00
2018-07-05T12:26:32.516Z,50.70
2018-07-05T12:29:11.877Z,53.50
2018-07-05T12:31:51.436Z,53.90
2018-07-05T12:34:30.917Z,54.00
2018-07-05T12:37:10.748Z,54.40
2018-07-05T12:39:50.997Z,55.40
2018-07-05T12:42:30.857Z,55.10
2018-07-05T12:45:10.436Z,55.20
2018-07-05T12:47:49.904Z,54.80
2018-07-05T12:50:29.484Z,54.60
2018-07-05T12:53:08.948Z,54.90
2018-07-05T12:55:49.108Z,55.40
2018-07-05T12:58:29.368Z,57.00
2018-07-05T13:01:09.194Z,55.50
2018-07-05T13:03:48.659Z,55.50
2018-07-05T13:06:28.332Z,55.70
2018-07-05T13:09:08.347Z,56.30
2018-07-05T13:11:47.857Z,59.60
2018-07-05T13:14:27.620Z,55.60
2018-07-05T13:17:07.102Z,56.20
2018-07-05T13:19:46.583Z,57.10
2018-07-05T13:22:26.179Z,56.10
2018-07-05T13:25:05.760Z,57.20
2018-07-05T13:27:45.344Z,57.40
2018-07-05T13:30:24.856Z,57.80
2018-07-05T13:33:04.384Z,58.60
2018-07-05T13:35:43.959Z,57.80
2018-07-05T13:38:23.563Z,57.70
2018-07-05T13:41:03.020Z,57.10
2018-07-05T13:43:42.597Z,56.70
2018-07-05T13:46:21.965Z,58.10
2018-07-05T13:49:01.543Z,57.70
2018-07-05T13:51:41.109Z,56.70
2018-07-05T13:54:20.587Z,56.70
2018-07-05T13:57:00.567Z,57.80
2018-07-05T13:59:39.937Z,57.90
2018-07-05T14:02:19.520Z,59.10
2018-07-05T14:04:58.978Z,59.10
2018-07-05T14:07:38.431Z,60.30
2018-07-05T14:10:18.005Z,59.70
2018-07-05T14:12:57.445Z,59.70
2018-07-05T14:15:36.951Z,59.80
2018-07-05T14:18:16.411Z,59.80
2018-07-05T14:20:55.888Z,58.70
2018-07-05T14:23:35.501Z,58.50
2018-07-05T14:26:14.988Z,58.50
2018-07-05T14:28:54.497Z,59.40
2018-07-05T14:31:34.268Z,56.40
2018-07-05T14:34:13.704Z,55.80
2018-07-05T14:36:53.316Z,54.60
2018-07-05T14:39:32.928Z,52.70
2018-07-05T14:42:12.296Z,53.10
2018-07-05T14:44:51.944Z,52.50
2018-07-05T14:47:31.375Z,52.00
2018-07-05T14:50:10.968Z,53.60
2018-07-05T14:52:50.420Z,53.00
2018-07-05T14:55:30.068Z,52.70
2018-07-05T14:58:09.632Z,50.00
2018-07-05T15:00:49.044Z,50.80
2018-07-05T15:03:28.597Z,48.90
2018-07-05T15:06:08.542Z,49.10
2018-07-05T15:08:47.891Z,48.80
2018-07-05T15:11:27.414Z,50.30
2018-07-05T15:14:06.932Z,50.90
2018-07-05T15:16:46.323Z,50.80
2018-07-05T15:19:25.852Z,50.50
2018-07-05T15:22:05.334Z,50.00
2018-07-05T15:24:44.800Z,47.80
2018-07-05T15:27:25.358Z,48.10
2018-07-05T15:30:04.923Z,49.00
2018-07-05T15:32:44.376Z,46.70
2018-07-05T15:35:24.588Z,47.00
2018-07-05T15:38:04.208Z,48.80
2018-07-05T15:40:43.644Z,49.70
2018-07-05T15:43:23.234Z,46.50
2018-07-05T15:46:02.849Z,46.40
2018-07-05T15:48:42.316Z,47.60
2018-07-05T15:51:21.911Z,47.80
2018-07-05T15:54:01.300Z,48.50
2018-07-05T15:56:40.887Z,47.90
2018-07-05T15:59:20.456Z,48.80
2018-07-05T16:02:00.017Z,49.30
2018-07-05T16:04:39.508Z,49.80
2018-07-05T16:07:19.085Z,51.10
2018-07-05T16:09:58.622Z,49.70
2018-07-05T16:12:38.027Z,49.70
2018-07-05T16:15:17.576Z,49.10
2018-07-05T16:17:57.017Z,49.70
2018-07-05T16:20:36.623Z,51.40
2018-07-05T16:23:16.060Z,52.70
2018-07-05T16:25:55.584Z,54.40
2018-07-05T16:28:34.978Z,53.60
2018-07-05T16:31:14.516Z,51.20
2018-07-05T16:33:54.006Z,50.60
2018-07-05T16:36:33.572Z,53.50
2018-07-05T16:39:13.299Z,50.70
2018-07-05T16:41:53.088Z,49.40
2018-07-05T16:44:32.576Z,50.70
2018-07-05T16:47:12.924Z,51.10
2018-07-05T16:49:52.548Z,52.60
2018-07-05T16:52:32.208Z,52.80
2018-07-05T16:55:11.760Z,53.50
2018-07-05T16:57:51.201Z,53.60
2018-07-05T17:00:30.759Z,54.20
2018-07-05T17:03:10.212Z,53.50
2018-07-05T17:05:50.024Z,52.50
2018-07-05T17:08:29.496Z,50.70
2018-07-05T17:11:09.054Z,48.80
2018-07-05T17:13:48.520Z,47.80
2018-07-05T17:16:28.150Z,49.30
2018-07-05T17:19:07.708Z,49.60
2018-07-05T17:21:47.300Z,50.50
2018-07-05T17:24:26.851Z,48.90
2018-07-05T17:27:06.456Z,48.90
2018-07-05T17:29:45.897Z,49.20
2018-07-05T17:32:25.367Z,48.90
2018-07-05T17:35:05.010Z,49.40
2018-07-05T17:37:44.492Z,48.60
2018-07-05T17:40:24.045Z,50.30
2018-07-05T17:43:03.528Z,50.30
2018-07-05T17:45:43.064Z,50.10
2018-07-05T17:48:22.523Z,47.60
2018-07-05T17:51:01.992Z,48.00
2018-07-05T17:53:41.548Z,46.90
2018-07-05T17:56:21.026Z,47.70
2018-07-05T17:59:00.685Z,46.40
2018-07-05T18:01:40.055Z,46.60
2018-07-05T18:04:19.747Z,47.10
2018-07-05T18:06:59.949Z,50.50
2018-07-05T18:09:40.096Z,47.90
2018-07-05T18:12:19.480Z,48.50
2018-07-05T18:14:59.084Z,47.90
2018-07-05T18:17:38.665Z,48.40
2018-07-05T18:20:18.041Z,48.90
2018-07-05T18:22:57.594Z,48.80
2018-07-05T18:25:37.063Z,49.00
2018-07-05T18:28:16.592Z,48.60
2018-07-05T18:30:56.179Z,50.20
2018-07-05T18:33:35.613Z,51.00
2018-07-05T18:36:15.091Z,47.50
2018-07-05T18:38:54.655Z,48.70
2018-07-05T18:41:34.124Z,48.80
2018-07-05T18:44:13.642Z,48.90
2018-07-05T18:46:53.186Z,49.20
2018-07-05T18:49:32.550Z,49.80
2018-07-05T18:52:12.147Z,50.00
2018-07-05T18:54:51.708Z,50.50
2018-07-05T18:57:31.161Z,51.90
2018-07-05T19:00:10.716Z,51.30
2018-07-05T19:02:50.180Z,51.30
2018-07-05T19:05:29.773Z,52.20
2018-07-05T19:08:09.304Z,53.20
2018-07-05T19:10:49.025Z,54.40
2018-07-05T19:13:28.509Z,55.50
2018-07-05T19:16:08.023Z,56.80
2018-07-05T19:18:47.562Z,57.90
2018-07-05T19:21:26.952Z,58.70
2018-07-05T19:24:06.556Z,59.00
2018-07-05T19:26:45.965Z,59.50
2018-07-05T19:29:25.556Z,59.70
2018-07-05T19:32:05.250Z,59.90
2018-07-05T19:34:44.620Z,60.30
2018-07-05T19:37:24.272Z,60.80
2018-07-05T19:40:03.793Z,61.30
2018-07-05T19:42:43.299Z,61.70
2018-07-05T19:45:22.900Z,62.30
2018-07-05T19:48:02.560Z,62.60
2018-07-05T19:50:42.023Z,62.90
2018-07-05T19:53:21.500Z,63.20
2018-07-05T19:56:01.075Z,63.40
2018-07-05T19:58:40.517Z,63.80
2018-07-05T20:01:20.075Z,64.10
2018-07-05T20:03:59.801Z,64.90
2018-07-05T20:06:39.292Z,65.90
2018-07-05T20:09:18.914Z,67.20
2018-07-05T20:12:03.722Z,68.60
2018-07-05T20:14:43.304Z,69.70
2018-07-05T20:17:22.895Z,70.60
2018-07-05T20:20:02.248Z,71.40
2018-07-05T20:22:41.820Z,72.20
2018-07-05T20:25:21.363Z,72.70
2018-07-05T20:28:00.979Z,73.20
2018-07-05T20:30:40.292Z,73.70
2018-07-05T20:33:19.992Z,74.30
2018-07-05T20:35:59.521Z,74.80
2018-07-05T20:38:39.088Z,74.90
2018-07-05T20:41:19.329Z,75.30
2018-07-05T20:43:58.948Z,75.50
2018-07-05T20:46:38.612Z,75.90
2018-07-05T20:49:18.222Z,76.20
2018-07-05T20:51:57.764Z,76.40
2018-07-05T20:54:37.313Z,76.60
2018-07-05T20:57:17.392Z,76.80
2018-07-05T20:59:56.952Z,77.40
2018-07-05T21:02:36.422Z,77.10
2018-07-05T21:05:16.180Z,76.30
2018-07-05T21:07:55.732Z,76.00
2018-07-05T21:10:35.288Z,75.60
2018-07-05T21:13:14.860Z,75.10
2018-07-05T21:15:54.236Z,75.10
2018-07-05T21:18:33.847Z,75.40
2018-07-05T21:21:13.431Z,75.40
2018-07-05T21:23:52.996Z,76.00
2018-07-05T21:26:32.688Z,77.70
2018-07-05T21:29:12.120Z,77.50
2018-07-05T21:31:51.696Z,77.50
2018-07-05T21:34:31.221Z,78.00
2018-07-05T21:37:10.845Z,78.40
2018-07-05T21:39:50.299Z,78.60
2018-07-05T21:42:29.858Z,78.90
2018-07-05T21:45:09.416Z,79.20
2018-07-05T21:47:49.054Z,79.60
2018-07-05T21:50:29.108Z,79.70
2018-07-05T21:53:08.584Z,79.30
2018-07-05T21:55:47.987Z,79.30
2018-07-05T21:58:28.121Z,79.50
2018-07-05T22:01:08.022Z,79.60
2018-07-05T22:03:47.621Z,79.80
2018-07-05T22:06:27.173Z,80.00
2018-07-05T22:09:06.577Z,80.40
2018-07-05T22:11:46.178Z,80.30
2018-07-05T22:14:25.677Z,80.30
2018-07-05T22:17:10.629Z,80.40
2018-07-05T22:19:56.212Z,80.60
2018-07-05T22:22:41.084Z,80.80
2018-07-05T22:25:25.962Z,81.20
2018-07-05T22:28:10.932Z,82.00
2018-07-05T22:30:55.933Z,83.10
2018-07-05T22:33:35.587Z,83.90
2018-07-05T22:36:15.169Z,84.30
2018-07-05T22:38:54.589Z,84.90
2018-07-05T22:41:34.099Z,85.80
2018-07-05T22:44:13.654Z,86.50
2018-07-05T22:46:53.445Z,87.40
2018-07-05T22:49:32.897Z,87.80
2018-07-05T22:52:12.303Z,88.20
2018-07-05T22:54:51.828Z,88.80
2018-07-05T22:57:31.344Z,89.50
2018-07-05T23:00:10.949Z,89.90
2018-07-05T23:02:50.526Z,90.10
2018-07-05T23:05:30.034Z,90.30
2018-07-05T23:08:09.584Z,90.50
2018-07-05T23:10:49.147Z,90.90
2018-07-05T23:13:28.613Z,91.20
2018-07-05T23:16:08.252Z,91.30
2018-07-05T23:18:47.705Z,91.50
2018-07-05T23:21:27.165Z,91.60
2018-07-05T23:24:06.830Z,92.00
2018-07-05T23:26:46.256Z,92.20
2018-07-05T23:29:25.818Z,92.30
2018-07-05T23:32:05.629Z,92.40
2018-07-05T23:34:45.030Z,92.50
2018-07-05T23:37:24.496Z,92.70
2018-07-05T23:40:04.000Z,92.70
2018-07-05T23:42:43.803Z,93.00
2018-07-05T23:45:23.248Z,93.40
2018-07-05T23:48:02.869Z,93.70
2018-07-05T23:50:42.348Z,93.80
2018-07-05T23:53:22.024Z,93.80
2018-07-05T23:56:01.444Z,93.90
2018-07-05T23:58:41.199Z,94.10
